This is the latest recevied weather packets stored in our database for station/object K9APR. If no packets are shown the sender has not sent any weather packets the latest 1 day(s).
| Time | Temp. | Humidity | Pressure | Rain* | Wind** | Luminosity | Snow |
|---|---|---|---|---|---|---|---|
| 1778098823 | 12.78° C | 61% | 1014.6 hPa | 0 mm | - | - | - |
| 1778095582 | 12.78° C | 63% | 1014.3 hPa | 0 mm | - | - | - |
| 1778093963 | 12.22° C | 62% | 1014.5 hPa | 0 mm | - | - | - |
| 1778092883 | 12.78° C | 62% | 1014.5 hPa | 0 mm | - | - | - |
| 1778089102 | 12.22° C | 64% | 1014.6 hPa | 0 mm | - | - | - |
| 1778087484 | 12.22° C | 62% | 1014.8 hPa | 0 mm | - | - | - |
| 1778083162 | 12.22° C | 66% | 1014.5 hPa | 0 mm | - | - | - |
| 1778081543 | 12.22° C | 64% | 1014.1 hPa | 0 mm | - | - | - |
| 1778081003 | 12.22° C | 65% | 1014.3 hPa | 0 mm | - | - | - |
| 1778079923 | 11.11° C | 65% | 1014.1 hPa | 0 mm | - | - | - |
| 1778079382 | 11.11° C | 69% | 1014 hPa | 0 mm | - | - | - |
| 1778078302 | 10.56° C | 69% | 1013.6 hPa | 0 mm | - | - | - |
| 1778076682 | 9.44° C | 74% | 1013.3 hPa | 0 mm | - | - | - |
| 1778071823 | 6.67° C | 90% | 1013.1 hPa | 0 mm | - | - | - |
| 1778069662 | 6.11° C | 92% | 1012.8 hPa | 0 mm | - | - | - |
| 1778067502 | 6.11° C | 93% | 1011.6 hPa | 0 mm | - | - | - |
| 1778065881 | 5.56° C | 93% | 1011.1 hPa | 0 mm | - | - | - |
| 1778064263 | 5.56° C | 93% | 1010.8 hPa | 0 mm | - | - | - |
| 1778062643 | 5.56° C | 92% | 1010.5 hPa | 0 mm | - | - | - |
| 1778060482 | 5.56° C | 92% | 1010 hPa | 0 mm | - | - | - |
| 1778059943 | 5.56° C | 92% | 1010 hPa | 0 mm | - | - | - |
| 1778058862 | 5.56° C | 93% | 1010.2 hPa | 0 mm | - | - | - |
| 1778057783 | 5.56° C | 92% | 1009.8 hPa | 0.25 mm | - | - | - |
| 1778056702 | 5.56° C | 92% | 1009.3 hPa | 0.25 mm | - | - | - |
| 1778056161 | 5.56° C | 92% | 1009.8 hPa | 0.51 mm | - | - | - |
* Rain latest hour (hover to see other rain measurements)
** Current wind speed in m/s (hover to see current wind gust speed)